KSLH

Details ICAO KSLH
Name CHEBOYGAN CO
Region United States
Timezone America/Detroit (UTC-5.0)
Plans Departing 1
Arriving 5
Stats Elevation 641 ft / 195 m (AMSL)
Location 45.653343° -84.519154°
Runways 2
Magnetic Variation 7.174° W
Sunrise 2017-12-13 13:11:58 UTC / 2017-12-13 08:11:58 Local
Sunset 2017-12-13 21:55:39 UTC / 2017-12-13 16:55:39 Local
Advertisement - Login to hide

Runways

ID Width Length Bearing (true) Bearing (mag) Surface Threshold Offset Overrun Length
09 75 ft / 23 m 3,991 ft / 1,216 m 89.91° 97.08° Asphalt 0 ft / 0 m 0 ft / 0 m
16 75 ft / 23 m 1,600 ft / 488 m 163.86° 171.03° Grass 0 ft / 0 m 0 ft / 0 m
27 75 ft / 23 m 3,991 ft / 1,216 m 269.92° 277.09° Asphalt 0 ft / 0 m 0 ft / 0 m
34 75 ft / 23 m 1,600 ft / 488 m 343.86° 351.03° Grass 500 ft / 152 m 0 ft / 0 m

Map

Weather


0- 5 10 15 20 25 30 35+ Temperature / ° C

Clouds and Precipitation
Forecast for 2017-12-14 00:00 UTC. Updated an hour ago

Ground ~20,000 ft ~40,000 ft Winds

METAR

KSLH 132035Z AUTO 10005KT 10SM BKN036 BKN080 M08/M12 A2958 RMK AO2 T10901125

TAF

Not found

Frequencies

Recorded 118.17 MHz AWOS 3
Unicom 122.80 MHz CTAF/UNICOM
Warning: Do not use this data for real-world aviation or navigation. No guarantee of current accuracy is given.